Time;durP1;ratioP1;P1;durP2;ratioP2;P2;SDS_P1;SDS_P2;PMS_P1;PMS_P2;Temp;Humidity;BMP_temperature;BMP_pressure;BME280_temperature;BME280_humidity;BME280_pressure;Samples;Min_cycle;Max_cycle;Signal;HPM_P1;HPM_P2
2021/12/04 00:00:02;;;;;;;3.70;3.40;;;5.10;99.90;;;;;;5054322;28;20199;-68
2021/12/04 00:02:29;;;;;;;4.28;3.20;;;5.10;99.90;;;;;;5054436;28;20210;-68
2021/12/04 00:04:58;;;;;;;3.35;2.95;;;5.10;99.90;;;;;;5054097;28;20203;-68
2021/12/04 00:07:26;;;;;;;3.05;2.75;;;5.20;99.90;;;;;;5053979;28;20800;-68
2021/12/04 00:10:00;;;;;;;3.85;3.22;;;5.20;99.90;;;;;;5054118;28;20230;-68
2021/12/04 00:12:29;;;;;;;3.28;2.97;;;5.20;99.90;;;;;;5054284;28;20187;-67
2021/12/04 00:14:57;;;;;;;3.17;2.92;;;5.30;99.90;;;;;;5053890;28;20543;-68
2021/12/04 00:17:24;;;;;;;3.78;3.25;;;5.20;99.90;;;;;;5053575;28;20290;-68
2021/12/04 00:19:51;;;;;;;3.60;3.17;;;5.20;99.90;;;;;;5053980;28;20676;-68
2021/12/04 00:22:18;;;;;;;4.15;3.25;;;5.10;99.90;;;;;;5054046;28;20219;-68
2021/12/04 00:24:45;;;;;;;3.40;3.10;;;5.10;99.90;;;;;;5053841;28;20692;-68
2021/12/04 00:27:12;;;;;;;4.10;3.80;;;5.10;99.90;;;;;;5053922;28;20204;-68
2021/12/04 00:29:39;;;;;;;4.07;3.67;;;5.10;99.90;;;;;;5053828;28;20223;-67
2021/12/04 00:32:12;;;;;;;4.30;3.90;;;5.10;99.90;;;;;;5053562;28;20223;-67
2021/12/04 00:34:42;;;;;;;3.92;3.08;;;5.10;99.90;;;;;;5053729;28;20203;-68
2021/12/04 00:50:57;;;;;;;4.97;3.50;;;5.10;99.90;;;;;;5053544;28;20316;-68
2021/12/04 00:53:24;;;;;;;6.80;4.53;;;5.20;99.90;;;;;;5053672;28;20210;-67
2021/12/04 00:55:50;;;;;;;5.40;4.90;;;5.20;99.90;;;;;;5053400;28;20203;-67
2021/12/04 00:58:17;;;;;;;4.82;3.97;;;5.20;99.90;;;;;;5053408;28;20215;-68
2021/12/04 01:00:44;;;;;;;4.95;4.50;;;5.30;99.90;;;;;;5053220;28;20657;-67
2021/12/04 01:03:12;;;;;;;5.82;4.07;;;5.30;99.90;;;;;;5053164;28;20299;-68
2021/12/04 01:05:40;;;;;;;4.47;3.90;;;5.30;99.90;;;;;;5052913;28;20661;-68
2021/12/04 01:08:07;;;;;;;5.13;4.20;;;5.20;99.90;;;;;;5053279;28;20215;-68
2021/12/04 01:10:35;;;;;;;6.10;5.47;;;5.20;99.90;;;;;;5052953;28;20712;-67
2021/12/04 01:13:04;;;;;;;5.82;5.00;;;5.10;99.90;;;;;;5053030;28;20238;-68
2021/12/04 01:15:31;;;;;;;6.32;4.72;;;5.10;99.90;;;;;;5053062;28;20207;-68
2021/12/04 01:17:58;;;;;;;5.05;4.35;;;5.10;99.90;;;;;;5053233;28;20573;-68
2021/12/04 01:20:26;;;;;;;5.95;4.68;;;5.10;99.90;;;;;;5053198;28;20302;-68
2021/12/04 01:22:53;;;;;;;5.47;4.28;;;5.10;99.90;;;;;;5053327;28;20203;-67
2021/12/04 01:25:20;;;;;;;4.85;4.22;;;5.10;99.90;;;;;;5052888;28;20692;-67
2021/12/04 01:27:47;;;;;;;4.60;4.10;;;5.10;99.90;;;;;;5053210;28;20212;-67
2021/12/04 01:30:14;;;;;;;5.00;3.80;;;5.00;99.90;;;;;;5054323;28;20220;-68
2021/12/04 01:32:41;;;;;;;4.85;4.10;;;5.00;99.90;;;;;;5057214;28;20207;-68
2021/12/04 01:35:09;;;;;;;5.18;3.95;;;5.00;99.90;;;;;;5056993;28;20199;-68
2021/12/04 01:37:38;;;;;;;6.22;4.40;;;5.00;99.90;;;;;;5057016;28;20203;-67
2021/12/04 01:40:06;;;;;;;4.60;4.10;;;4.90;99.90;;;;;;5057004;28;20225;-68
2021/12/04 01:42:35;;;;;;;4.60;3.65;;;4.80;99.90;;;;;;5057156;28;20210;-67
2021/12/04 01:45:04;;;;;;;5.55;4.00;;;4.80;99.90;;;;;;5056614;28;20210;-68
2021/12/04 01:47:31;;;;;;;4.38;3.97;;;4.70;99.90;;;;;;5056895;28;20310;-67
2021/12/04 01:49:59;;;;;;;4.60;4.10;;;4.60;99.90;;;;;;5057137;28;20211;-68
2021/12/04 01:52:26;;;;;;;5.70;4.43;;;4.60;99.90;;;;;;5056917;28;20627;-68
2021/12/04 01:54:55;;;;;;;6.20;4.30;;;4.60;99.90;;;;;;5056633;28;20213;-68
2021/12/04 01:57:24;;;;;;;3.25;2.75;;;4.60;99.90;;;;;;5056699;28;20294;-68
2021/12/04 01:59:51;;;;;;;4.63;3.28;;;4.60;99.90;;;;;;5056453;28;20203;-68
2021/12/04 02:02:18;;;;;;;3.03;2.75;;;4.70;99.90;;;;;;5056646;28;20230;-67
2021/12/04 02:04:45;;;;;;;4.15;3.00;;;4.60;99.90;;;;;;5056248;28;20208;-68
2021/12/04 02:07:13;;;;;;;3.88;2.85;;;4.70;99.90;;;;;;5056475;28;20242;-68
2021/12/04 02:09:40;;;;;;;3.40;3.10;;;4.70;99.90;;;;;;5056367;28;20211;-68
2021/12/04 02:12:09;;;;;;;3.40;2.90;;;4.70;99.90;;;;;;5056948;28;20223;-68
2021/12/04 02:14:39;;;;;;;4.25;3.40;;;4.70;99.90;;;;;;5056263;28;20200;-68
2021/12/04 02:17:06;;;;;;;4.00;3.40;;;4.70;99.90;;;;;;5056220;28;20294;-68
2021/12/04 02:19:34;;;;;;;6.20;3.72;;;4.70;99.90;;;;;;5056403;28;20294;-68
2021/12/04 02:22:02;;;;;;;5.00;4.03;;;4.70;99.90;;;;;;5056269;28;20219;-68
2021/12/04 02:24:29;;;;;;;6.60;4.28;;;4.70;99.90;;;;;;5056083;28;20203;-68
2021/12/04 02:26:56;;;;;;;7.10;4.45;;;4.70;99.90;;;;;;5056193;28;20241;-68
2021/12/04 02:29:23;;;;;;;7.90;4.40;;;4.70;99.90;;;;;;5056206;28;20286;-68
2021/12/04 02:31:51;;;;;;;4.97;3.83;;;4.60;99.90;;;;;;5056074;28;20697;-68
2021/12/04 02:34:23;;;;;;;6.05;4.35;;;4.70;99.90;;;;;;5056222;28;20278;-67
2021/12/04 02:36:50;;;;;;;5.05;4.55;;;4.70;99.90;;;;;;5056057;28;20207;-68
2021/12/04 02:39:23;;;;;;;5.40;4.90;;;4.70;99.90;;;;;;5055955;28;20626;-68
2021/12/04 02:41:50;;;;;;;7.05;5.40;;;4.70;99.90;;;;;;5055459;28;20230;-68
2021/12/04 02:44:17;;;;;;;6.50;4.72;;;4.60;99.90;;;;;;5055893;28;20211;-68
2021/12/04 02:46:44;;;;;;;8.23;6.05;;;4.60;99.90;;;;;;5055728;28;20208;-68
2021/12/04 02:49:13;;;;;;;9.82;5.65;;;4.50;99.90;;;;;;5055795;28;20214;-68
2021/12/04 02:51:40;;;;;;;7.32;5.70;;;4.60;99.90;;;;;;5055371;28;20235;-68
2021/12/04 02:54:07;;;;;;;7.97;6.18;;;4.50;99.90;;;;;;5055775;28;20206;-68
2021/12/04 02:56:35;;;;;;;7.20;5.80;;;4.60;99.90;;;;;;5055510;28;20207;-68
2021/12/04 02:59:03;;;;;;;8.43;6.43;;;4.60;99.90;;;;;;5055662;28;20573;-68
2021/12/04 03:01:30;;;;;;;6.97;6.07;;;4.70;99.90;;;;;;5055548;28;20223;-68
2021/12/04 03:04:06;;;;;;;9.30;7.10;;;4.60;99.90;;;;;;5055644;28;20218;-68
2021/12/04 03:06:39;;;;;;;8.38;6.75;;;4.60;99.90;;;;;;5055113;28;20289;-68
2021/12/04 03:09:06;;;;;;;8.48;6.90;;;4.70;99.90;;;;;;5055173;28;20302;-68
2021/12/04 03:11:35;;;;;;;8.90;6.60;;;4.60;99.90;;;;;;5055021;28;20227;-68
2021/12/04 03:14:03;;;;;;;9.55;7.00;;;4.50;99.90;;;;;;5055369;28;20295;-68
2021/12/04 03:16:31;;;;;;;7.75;6.90;;;4.60;99.90;;;;;;5055152;28;20298;-68
2021/12/04 03:18:58;;;;;;;10.77;7.82;;;4.60;99.90;;;;;;5055249;28;20673;-67
2021/12/04 03:21:25;;;;;;;8.98;7.30;;;4.60;99.90;;;;;;5054911;28;20247;-68
2021/12/04 03:23:55;;;;;;;8.52;7.18;;;4.50;99.90;;;;;;5054995;28;20203;-68
2021/12/04 03:26:22;;;;;;;9.95;7.63;;;4.40;99.90;;;;;;5054863;28;20780;-68
2021/12/04 03:28:51;;;;;;;11.55;9.00;;;4.30;99.90;;;;;;5055044;28;20289;-67
2021/12/04 03:31:21;;;;;;;12.15;8.20;;;4.10;99.90;;;;;;5055202;28;20318;-68
2021/12/04 03:42:01;;;;;;;12.82;9.00;;;4.20;99.90;;;;;;5054606;28;20269;-68
2021/12/04 03:44:31;;;;;;;12.10;8.30;;;4.30;99.90;;;;;;5054610;28;20581;-68
2021/12/04 03:46:58;;;;;;;10.05;8.30;;;4.40;99.90;;;;;;5054423;28;20739;-68
2021/12/04 03:49:24;;;;;;;12.60;8.82;;;4.60;99.90;;;;;;5054490;28;20681;-68
2021/12/04 03:51:51;;;;;;;13.93;9.32;;;4.60;99.90;;;;;;5053825;28;20263;-68
2021/12/04 03:54:18;;;;;;;14.30;9.55;;;4.70;99.90;;;;;;5054138;28;20209;-68
2021/12/04 03:56:45;;;;;;;13.52;10.13;;;4.70;99.90;;;;;;5054326;28;20630;-68
2021/12/04 03:59:12;;;;;;;13.15;9.82;;;4.70;99.90;;;;;;5054781;28;20211;-68
2021/12/04 04:01:40;;;;;;;13.55;10.27;;;4.80;99.90;;;;;;5054546;28;20230;-68
2021/12/04 04:04:07;;;;;;;11.50;10.20;;;4.80;99.90;;;;;;5054327;28;20688;-68
2021/12/04 04:06:34;;;;;;;14.30;10.20;;;4.80;99.90;;;;;;5054171;28;20205;-68
2021/12/04 04:09:03;;;;;;;14.48;11.30;;;4.90;99.90;;;;;;5054075;28;20211;-68
2021/12/04 04:11:30;;;;;;;14.52;10.30;;;4.80;99.90;;;;;;5053880;28;20692;-68
2021/12/04 04:13:57;;;;;;;13.77;10.73;;;4.80;99.90;;;;;;5054264;28;20772;-68
2021/12/04 04:16:24;;;;;;;14.30;10.90;;;4.80;99.90;;;;;;5054023;28;20200;-68
2021/12/04 04:18:52;;;;;;;15.43;10.50;;;4.80;99.90;;;;;;5054066;28;20261;-68
2021/12/04 04:21:19;;;;;;;14.15;11.73;;;4.80;99.90;;;;;;5053913;28;20684;-68
2021/12/04 04:23:45;;;;;;;14.73;11.30;;;4.80;99.90;;;;;;5054079;28;20303;-68
2021/12/04 04:26:12;;;;;;;13.35;10.85;;;4.90;99.90;;;;;;5053857;28;20203;-68
2021/12/04 04:28:39;;;;;;;14.75;10.73;;;5.00;99.90;;;;;;5053816;28;20210;-68
2021/12/04 04:31:08;;;;;;;14.55;11.23;;;4.90;99.90;;;;;;5053795;28;20229;-68
2021/12/04 04:33:39;;;;;;;13.98;10.60;;;4.90;99.90;;;;;;5053941;28;20208;-68
2021/12/04 04:36:17;;;;;;;15.13;11.60;;;4.90;99.90;;;;;;5053728;28;20254;-68
2021/12/04 04:38:49;;;;;;;15.88;11.55;;;4.90;99.90;;;;;;5053634;28;20665;-68
2021/12/04 04:58:00;;;;;;;14.30;10.90;;;5.00;99.90;;;;;;5053491;28;20218;-68
2021/12/04 05:00:36;;;;;;;15.85;10.82;;;4.90;99.90;;;;;;5053435;28;20237;-68
2021/12/04 05:11:40;;;;;;;15.45;11.40;;;4.70;99.90;;;;;;5053272;28;20300;-68
2021/12/04 05:14:07;;;;;;;16.63;12.65;;;4.60;99.90;;;;;;5053378;28;20561;-68
2021/12/04 05:16:49;;;;;;;17.08;11.75;;;4.50;99.90;;;;;;5052956;28;20680;-68
2021/12/04 05:19:26;;;;;;;16.67;12.98;;;4.40;99.90;;;;;;5053334;28;20709;-68
2021/12/04 05:21:54;;;;;;;18.45;12.65;;;4.30;99.90;;;;;;5053069;28;20268;-68
2021/12/04 05:24:23;;;;;;;19.63;13.10;;;4.30;99.90;;;;;;5052972;28;20207;-68
2021/12/04 05:26:51;;;;;;;21.45;12.85;;;4.30;99.90;;;;;;5053084;28;20203;-68
2021/12/04 05:29:18;;;;;;;19.20;13.48;;;4.20;99.90;;;;;;5053294;28;20584;-67
2021/12/04 05:31:44;;;;;;;19.52;13.48;;;4.10;99.90;;;;;;5052897;28;20227;-68
2021/12/04 05:34:11;;;;;;;19.90;14.23;;;4.10;99.90;;;;;;5053218;28;20199;-68
2021/12/04 05:36:38;;;;;;;20.00;13.60;;;4.10;99.90;;;;;;5053026;28;20204;-68
2021/12/04 05:39:05;;;;;;;20.02;14.02;;;4.20;99.90;;;;;;5053200;28;20229;-68
2021/12/04 05:41:33;;;;;;;21.17;14.02;;;4.30;99.90;;;;;;5053139;28;20223;-68
2021/12/04 05:44:04;;;;;;;19.48;13.50;;;4.30;99.90;;;;;;5053120;28;20210;-68
2021/12/04 05:46:36;;;;;;;18.77;13.45;;;4.40;99.90;;;;;;5052931;28;20207;-68
2021/12/04 05:49:06;;;;;;;22.08;13.18;;;4.30;99.90;;;;;;5053096;28;20617;-67
2021/12/04 05:51:48;;;;;;;19.40;13.57;;;4.30;99.90;;;;;;5052695;28;20761;-68
2021/12/04 05:57:03;;;;;;;20.75;14.32;;;4.40;99.90;;;;;;5018955;28;20199;-67
2021/12/04 05:59:30;;;;;;;18.38;13.40;;;4.40;99.90;;;;;;5053000;28;20293;-68
2021/12/04 06:01:57;;;;;;;17.48;13.15;;;4.30;99.90;;;;;;5052968;28;20314;-68
2021/12/04 06:04:24;;;;;;;19.13;13.15;;;4.20;99.90;;;;;;5052590;28;20676;-67
2021/12/04 06:06:51;;;;;;;19.52;13.57;;;4.10;99.90;;;;;;5052951;28;20573;-67
2021/12/04 06:09:18;;;;;;;18.65;13.85;;;4.00;99.90;;;;;;5053078;28;20216;-68
2021/12/04 06:11:45;;;;;;;18.88;12.30;;;4.10;99.90;;;;;;5052456;28;20228;-68
2021/12/04 06:14:13;;;;;;;19.58;13.23;;;4.30;99.90;;;;;;5052861;28;20200;-68
2021/12/04 06:16:40;;;;;;;16.30;12.45;;;4.50;99.90;;;;;;5054702;28;20222;-68
2021/12/04 06:19:12;;;;;;;15.32;11.23;;;4.70;99.90;;;;;;5056469;28;20630;-68
2021/12/04 06:24:23;;;;;;;13.45;10.00;;;4.90;99.90;;;;;;5056237;28;20186;-68
2021/12/04 06:26:50;;;;;;;14.25;10.27;;;5.00;99.90;;;;;;5056311;28;20241;-68
2021/12/04 06:29:18;;;;;;;14.73;11.27;;;5.10;99.90;;;;;;5056228;28;20563;-68
2021/12/04 06:31:45;;;;;;;13.98;10.18;;;5.20;99.90;;;;;;5055854;28;20592;-68
2021/12/04 06:34:12;;;;;;;16.70;11.98;;;5.00;99.90;;;;;;5056061;28;20294;-68
2021/12/04 06:36:39;;;;;;;18.00;11.98;;;4.80;99.90;;;;;;5055933;28;20311;-67
2021/12/04 06:39:06;;;;;;;17.58;11.85;;;5.00;99.90;;;;;;5055862;28;20657;-68
2021/12/04 06:41:33;;;;;;;15.48;11.93;;;4.90;99.90;;;;;;5056006;28;20226;-68
2021/12/04 06:43:59;;;;;;;14.73;11.20;;;4.80;99.90;;;;;;5055868;28;20311;-68
2021/12/04 06:46:29;;;;;;;13.27;10.20;;;4.90;99.90;;;;;;5055759;28;20206;-68
2021/12/04 06:49:05;;;;;;;16.23;9.85;;;4.80;99.90;;;;;;5055844;28;20209;-68
2021/12/04 06:51:34;;;;;;;17.27;10.52;;;4.90;99.90;;;;;;5055709;28;20265;-68
2021/12/04 06:54:04;;;;;;;15.80;11.75;;;5.00;99.90;;;;;;5055561;28;20747;-68
2021/12/04 06:56:34;;;;;;;13.68;9.80;;;5.00;99.90;;;;;;5055538;28;20265;-68
2021/12/04 06:59:05;;;;;;;13.45;9.73;;;5.10;99.90;;;;;;5055673;28;20257;-68
2021/12/04 07:01:34;;;;;;;12.93;9.48;;;5.20;99.90;;;;;;5055626;28;20224;-68
2021/12/04 07:04:01;;;;;;;12.60;9.48;;;5.30;99.90;;;;;;5055602;28;20203;-68
2021/12/04 07:06:28;;;;;;;11.15;8.63;;;5.30;99.90;;;;;;5055389;28;20214;-68
2021/12/04 07:08:56;;;;;;;10.98;9.27;;;5.30;99.90;;;;;;5055354;28;20215;-68
2021/12/04 07:11:23;;;;;;;10.55;8.25;;;5.30;99.90;;;;;;5055036;28;20705;-68
2021/12/04 07:13:50;;;;;;;10.90;7.90;;;5.30;99.90;;;;;;5055487;28;20202;-68
2021/12/04 07:16:18;;;;;;;11.02;8.35;;;5.30;99.90;;;;;;5054988;28;20290;-68
2021/12/04 07:18:46;;;;;;;11.70;9.35;;;5.40;99.90;;;;;;5055361;28;20576;-68
2021/12/04 07:21:13;;;;;;;11.15;9.25;;;5.40;99.90;;;;;;5055301;28;20227;-68
2021/12/04 07:23:41;;;;;;;13.05;8.15;;;5.40;99.90;;;;;;5055251;28;20199;-68
2021/12/04 07:26:09;;;;;;;13.98;8.65;;;5.50;99.90;;;;;;5055045;28;20200;-68
2021/12/04 07:28:36;;;;;;;9.35;7.93;;;5.40;99.90;;;;;;5055194;28;20299;-68
2021/12/04 07:31:03;;;;;;;12.70;8.63;;;5.50;99.90;;;;;;5055012;28;20229;-68
2021/12/04 07:33:30;;;;;;;11.27;8.13;;;5.50;99.90;;;;;;5055017;28;20230;-68
2021/12/04 07:35:59;;;;;;;9.00;7.35;;;5.60;99.90;;;;;;5054667;28;20207;-68
2021/12/04 07:38:26;;;;;;;8.20;7.40;;;5.60;99.90;;;;;;5055326;28;20565;-68
2021/12/04 07:40:53;;;;;;;10.93;7.90;;;5.60;99.90;;;;;;5054806;28;20230;-68
2021/12/04 07:43:20;;;;;;;10.02;8.13;;;5.60;99.90;;;;;;5054927;28;20195;-68
2021/12/04 07:45:46;;;;;;;10.40;7.45;;;5.70;99.90;;;;;;5054697;28;20203;-68
2021/12/04 07:48:13;;;;;;;9.27;7.30;;;5.60;99.90;;;;;;5054860;28;20226;-68
2021/12/04 07:50:40;;;;;;;8.70;7.70;;;5.70;99.90;;;;;;5054654;28;20227;-68
2021/12/04 07:53:08;;;;;;;7.88;6.90;;;5.60;99.90;;;;;;5054432;28;20223;-68
2021/12/04 07:55:35;;;;;;;7.22;6.53;;;5.60;99.90;;;;;;5054331;28;20682;-68
2021/12/04 07:58:03;;;;;;;8.90;7.70;;;5.70;99.90;;;;;;5054568;28;20687;-68
2021/12/04 08:00:30;;;;;;;8.93;7.82;;;5.80;99.90;;;;;;5054531;28;20250;-68
2021/12/04 08:02:57;;;;;;;9.35;7.68;;;5.80;99.90;;;;;;5054651;28;20213;-68
2021/12/04 08:05:25;;;;;;;8.13;6.90;;;5.80;99.90;;;;;;5054251;28;20207;-68
2021/12/04 08:07:51;;;;;;;9.45;7.40;;;5.90;99.90;;;;;;5054260;28;20239;-68
2021/12/04 08:10:20;;;;;;;7.80;6.93;;;5.80;99.90;;;;;;5054420;28;20290;-68
2021/12/04 08:12:47;;;;;;;9.52;7.82;;;5.90;99.90;;;;;;5054277;28;20228;-68
2021/12/04 08:15:16;;;;;;;8.90;7.78;;;5.90;99.90;;;;;;5054198;28;20564;-68
2021/12/04 08:17:44;;;;;;;8.02;6.93;;;5.90;99.90;;;;;;5054252;28;20575;-68
2021/12/04 08:20:12;;;;;;;8.00;7.20;;;6.00;99.90;;;;;;5054207;28;20709;-68
2021/12/04 08:22:40;;;;;;;8.95;7.25;;;6.00;99.90;;;;;;5054261;28;20210;-68
2021/12/04 08:25:09;;;;;;;8.45;7.28;;;6.00;99.90;;;;;;5053835;28;20657;-68
2021/12/04 08:27:37;;;;;;;8.20;7.10;;;6.00;99.90;;;;;;5054125;28;20207;-69
2021/12/04 08:30:06;;;;;;;9.00;7.38;;;6.10;99.90;;;;;;5054082;28;20203;-69
2021/12/04 08:32:33;;;;;;;6.85;6.18;;;6.00;99.90;;;;;;5053993;28;20226;-68
2021/12/04 08:35:02;;;;;;;8.77;7.35;;;6.10;99.90;;;;;;5053729;28;20212;-69
2021/12/04 08:37:29;;;;;;;9.05;7.28;;;6.20;99.90;;;;;;5053891;28;20215;-69
2021/12/04 08:39:56;;;;;;;10.15;8.07;;;6.30;99.90;;;;;;5053501;28;20210;-68
2021/12/04 08:42:24;;;;;;;12.55;9.27;;;6.40;99.90;;;;;;5053542;28;20219;-68
2021/12/04 08:44:53;;;;;;;11.07;8.40;;;6.40;99.90;;;;;;5053567;28;20222;-68
2021/12/04 08:47:20;;;;;;;12.90;9.82;;;6.40;99.90;;;;;;5053793;28;20203;-68
2021/12/04 08:49:47;;;;;;;11.18;8.57;;;6.50;99.90;;;;;;5053728;28;20213;-68
2021/12/04 08:52:17;;;;;;;14.98;10.55;;;6.70;99.90;;;;;;5053544;28;20319;-68
2021/12/04 08:54:44;;;;;;;12.23;9.68;;;6.70;99.90;;;;;;5054115;28;20265;-69
2021/12/04 08:57:11;;;;;;;15.93;11.80;;;6.70;99.90;;;;;;5053675;28;20203;-68
2021/12/04 08:59:38;;;;;;;11.85;9.48;;;6.70;99.90;;;;;;5053636;28;20211;-69
2021/12/04 09:02:07;;;;;;;10.23;8.05;;;6.70;99.90;;;;;;5053580;28;20223;-69
2021/12/04 09:04:36;;;;;;;9.73;7.90;;;6.60;99.90;;;;;;5053295;28;20211;-69
2021/12/04 09:07:04;;;;;;;8.23;7.10;;;6.80;99.90;;;;;;5053537;28;20310;-69
2021/12/04 09:09:31;;;;;;;8.60;7.22;;;6.80;99.90;;;;;;5053264;28;20218;-68
2021/12/04 09:12:02;;;;;;;8.23;7.13;;;6.90;99.90;;;;;;5053417;28;20230;-68
2021/12/04 09:14:31;;;;;;;8.85;7.65;;;7.00;99.90;;;;;;5053325;28;20207;-69
2021/12/04 09:17:00;;;;;;;9.80;8.48;;;7.00;99.90;;;;;;5053392;28;20207;-69
2021/12/04 09:19:28;;;;;;;11.00;9.73;;;7.00;99.90;;;;;;5053395;28;20213;-68
2021/12/04 09:21:57;;;;;;;12.57;9.65;;;7.00;99.90;;;;;;5053421;28;20234;-68
2021/12/04 09:24:27;;;;;;;11.32;10.13;;;7.00;99.90;;;;;;5053212;28;20237;-69
2021/12/04 09:26:59;;;;;;;12.10;9.88;;;7.00;99.90;;;;;;5053340;28;20206;-69
2021/12/04 10:00:06;;;;;;;7.55;6.75;;;7.80;99.90;;;;;;5057017;28;20245;-68
2021/12/04 10:02:42;;;;;;;8.88;7.97;;;7.80;99.90;;;;;;5056941;28;20191;-68
2021/12/04 10:13:56;;;;;;;8.88;7.97;;;7.90;99.90;;;;;;5056440;28;20680;-68
2021/12/04 10:17:00;;;;;;;9.05;7.35;;;8.00;99.90;;;;;;5056512;28;20569;-68
2021/12/04 10:19:37;;;;;;;8.70;7.80;;;8.20;99.90;;;;;;5056351;28;20199;-68
2021/12/04 10:22:13;;;;;;;9.27;8.30;;;8.40;99.90;;;;;;5056715;28;20310;-69
2021/12/04 10:24:58;;;;;;;9.10;8.20;;;8.40;99.90;;;;;;5056301;28;20214;-69
2021/12/04 10:33:14;;;;;;;8.63;7.82;;;8.80;99.90;;;;;;5025208;28;20219;-69
2021/12/04 10:35:42;;;;;;;12.65;8.82;;;8.80;99.90;;;;;;5056008;28;20687;-68
2021/12/04 10:38:14;;;;;;;9.00;7.32;;;8.90;99.90;;;;;;5056756;28;20207;-69
2021/12/04 10:40:47;;;;;;;8.68;7.75;;;8.80;99.90;;;;;;5055823;28;20224;-68
2021/12/04 10:43:19;;;;;;;10.88;7.25;;;8.80;99.90;;;;;;5056129;28;20287;-68
2021/12/04 10:45:51;;;;;;;7.57;6.65;;;8.80;99.90;;;;;;5055920;28;20231;-68
2021/12/04 10:48:21;;;;;;;7.70;7.00;;;8.80;99.90;;;;;;5056077;28;20216;-68
2021/12/04 10:50:54;;;;;;;10.15;9.25;;;8.70;99.90;;;;;;5055863;28;20281;-68
2021/12/04 10:53:23;;;;;;;10.90;8.98;;;8.80;99.90;;;;;;5055750;28;20228;-68
2021/12/04 10:55:58;;;;;;;11.20;9.40;;;8.80;99.90;;;;;;5055678;28;20254;-68
2021/12/04 10:58:50;;;;;;;10.35;8.85;;;8.80;99.90;;;;;;5055727;28;20731;-68
2021/12/04 11:01:28;;;;;;;10.48;9.55;;;8.80;99.90;;;;;;5055397;28;20306;-68
2021/12/04 11:04:02;;;;;;;8.90;8.00;;;8.90;99.90;;;;;;5055499;28;20203;-68
2021/12/04 11:23:44;;;;;;;0.88;0.88;;;9.40;99.90;;;;;;5055456;28;20175;-68
2021/12/04 11:37:31;;;;;;;0.90;0.90;;;9.90;99.90;;;;;;5054957;28;20241;-69
2021/12/04 11:40:08;;;;;;;0.75;0.70;;;9.90;99.90;;;;;;5055051;28;20265;-68
2021/12/04 11:42:39;;;;;;;0.70;0.70;;;9.90;99.90;;;;;;5055072;28;20203;-68
2021/12/04 11:45:16;;;;;;;0.77;0.75;;;9.90;99.90;;;;;;5054709;28;20302;-69
2021/12/04 11:47:45;;;;;;;0.70;0.65;;;10.00;99.90;;;;;;5055236;28;20214;-68
2021/12/04 11:50:22;;;;;;;1.20;0.80;;;10.10;99.90;;;;;;5055073;28;20298;-68
2021/12/04 11:52:51;;;;;;;0.65;0.65;;;10.10;99.90;;;;;;5054852;28;20242;-68
2021/12/04 11:55:20;;;;;;;0.85;0.60;;;10.10;99.90;;;;;;5054444;28;20214;-69
2021/12/04 11:57:48;;;;;;;0.80;0.80;;;10.10;99.90;;;;;;5054691;28;20310;-68
2021/12/04 12:00:22;;;;;;;0.60;0.57;;;10.20;99.90;;;;;;5054393;28;20684;-68
2021/12/04 12:02:50;;;;;;;1.00;1.00;;;10.20;99.90;;;;;;5054696;28;20179;-69
2021/12/04 12:05:18;;;;;;;0.60;0.60;;;10.20;99.90;;;;;;5054269;28;20199;-68
2021/12/04 12:07:55;;;;;;;0.70;0.70;;;10.30;99.90;;;;;;5054129;28;20306;-69
2021/12/04 12:10:25;;;;;;;1.00;0.90;;;10.30;99.90;;;;;;5054398;28;20242;-69
2021/12/04 12:12:55;;;;;;;0.70;0.70;;;10.30;99.90;;;;;;5054203;28;20243;-68
2021/12/04 12:15:31;;;;;;;3.33;2.63;;;10.30;99.90;;;;;;5053769;28;20199;-69
2021/12/04 12:18:09;;;;;;;2.15;1.80;;;10.40;99.90;;;;;;5054329;28;20208;-69
2021/12/04 12:20:42;;;;;;;1.67;1.58;;;10.40;99.90;;;;;;5053996;28;20234;-69
2021/12/04 12:23:12;;;;;;;0.85;0.85;;;10.40;99.90;;;;;;5054294;28;20604;-69
2021/12/04 12:26:09;;;;;;;0.60;0.60;;;10.40;99.90;;;;;;5054041;28;20257;-69
2021/12/04 12:37:21;;;;;;;0.93;0.90;;;10.40;99.90;;;;;;5054114;28;20225;-69
2021/12/04 12:39:53;;;;;;;1.98;0.90;;;10.40;99.90;;;;;;5054021;28;20199;-68
2021/12/04 12:42:28;;;;;;;1.00;0.90;;;10.50;99.90;;;;;;5054379;28;20262;-68
2021/12/04 12:44:55;;;;;;;2.17;0.77;;;10.40;99.90;;;;;;5053849;28;20203;-68
2021/12/04 12:47:23;;;;;;;0.60;0.55;;;10.50;99.90;;;;;;5053716;28;20208;-69
2021/12/04 12:49:50;;;;;;;0.95;0.73;;;10.50;99.90;;;;;;5053730;28;20214;-69
2021/12/04 12:52:25;;;;;;;0.60;0.60;;;10.50;99.90;;;;;;5053751;28;20226;-69
2021/12/04 12:54:55;;;;;;;0.50;0.50;;;10.50;99.90;;;;;;5053468;28;20227;-69
2021/12/04 12:57:25;;;;;;;0.50;0.50;;;10.50;99.90;;;;;;5053664;28;20203;-68
2021/12/04 13:11:42;;;;;;;0.60;0.60;;;10.50;99.90;;;;;;5053485;28;20226;-68
2021/12/04 13:14:11;;;;;;;0.90;0.80;;;10.50;99.90;;;;;;5053487;28;20219;-68
2021/12/04 13:16:38;;;;;;;0.60;0.60;;;10.40;99.90;;;;;;5053271;28;20211;-68
2021/12/04 13:19:11;;;;;;;0.60;0.60;;;10.40;99.90;;;;;;5053444;28;20210;-68
2021/12/04 13:21:39;;;;;;;0.60;0.60;;;10.40;99.90;;;;;;5053486;28;20227;-68
2021/12/04 13:24:10;;;;;;;0.70;0.70;;;10.40;99.90;;;;;;5053416;28;20243;-68
2021/12/04 13:26:39;;;;;;;1.00;0.90;;;10.30;99.90;;;;;;5057188;28;20294;-68
2021/12/04 13:29:08;;;;;;;0.90;0.70;;;10.30;99.90;;;;;;5057431;28;20207;-69
2021/12/04 13:31:38;;;;;;;0.70;0.70;;;10.30;99.90;;;;;;5057454;28;20577;-68
2021/12/04 13:34:09;;;;;;;0.80;0.80;;;10.30;99.90;;;;;;5057181;28;20754;-68
2021/12/04 13:36:37;;;;;;;1.02;0.95;;;10.30;99.90;;;;;;5057159;28;20207;-68
2021/12/04 13:39:06;;;;;;;1.20;1.00;;;10.40;99.90;;;;;;5057317;28;20207;-69
2021/12/04 13:41:35;;;;;;;0.80;0.80;;;10.40;99.90;;;;;;5056958;28;20599;-68
2021/12/04 13:44:04;;;;;;;1.40;1.30;;;10.40;99.90;;;;;;5057013;28;20652;-68
2021/12/04 13:46:39;;;;;;;1.13;1.10;;;10.40;99.90;;;;;;5056829;28;20217;-69
2021/12/04 13:49:07;;;;;;;0.80;0.80;;;10.30;99.90;;;;;;5057196;28;20203;-69
2021/12/04 13:51:34;;;;;;;1.08;0.80;;;10.40;99.90;;;;;;5057041;28;20219;-68
2021/12/04 13:54:02;;;;;;;2.80;1.00;;;10.40;99.90;;;;;;5057035;28;20229;-69
2021/12/04 13:56:30;;;;;;;2.78;0.65;;;10.40;99.90;;;;;;5056585;28;20302;-68
2021/12/04 13:58:59;;;;;;;0.90;0.90;;;10.40;99.90;;;;;;5057003;28;20214;-68
2021/12/04 14:01:29;;;;;;;0.90;0.90;;;10.40;99.90;;;;;;5056608;28;20227;-68
2021/12/04 14:03:57;;;;;;;1.10;1.00;;;10.30;99.90;;;;;;5056862;28;20199;-69
2021/12/04 14:06:26;;;;;;;4.18;3.50;;;10.30;99.90;;;;;;5056410;28;20199;-69
2021/12/04 14:08:58;;;;;;;1.20;1.10;;;10.30;99.90;;;;;;5056468;28;20592;-69
2021/12/04 14:11:29;;;;;;;0.90;0.90;;;10.20;99.90;;;;;;5056708;28;20234;-69
2021/12/04 14:13:56;;;;;;;1.00;1.00;;;10.10;99.90;;;;;;5056676;28;20219;-68
2021/12/04 14:16:24;;;;;;;0.80;0.80;;;10.10;99.90;;;;;;5056379;28;20293;-68
2021/12/04 14:18:51;;;;;;;1.10;0.80;;;10.10;99.90;;;;;;5056571;28;20233;-69
2021/12/04 14:21:18;;;;;;;1.20;1.00;;;10.10;99.90;;;;;;5056131;28;20226;-69
2021/12/04 14:23:48;;;;;;;1.10;1.00;;;10.10;99.90;;;;;;5056480;28;20264;-69
2021/12/04 14:26:16;;;;;;;1.88;1.60;;;10.10;99.90;;;;;;5056027;28;20592;-69
2021/12/04 14:28:44;;;;;;;1.30;1.17;;;10.10;99.90;;;;;;5056757;28;20204;-69
2021/12/04 14:31:12;;;;;;;1.27;1.17;;;10.10;99.90;;;;;;5056277;28;20255;-69
2021/12/04 14:33:41;;;;;;;2.33;1.48;;;10.10;99.90;;;;;;5055975;28;20223;-69
2021/12/04 14:36:08;;;;;;;1.38;1.27;;;10.10;99.90;;;;;;5055643;28;20238;-69
2021/12/04 14:38:35;;;;;;;1.30;1.20;;;10.10;99.90;;;;;;5056023;28;20211;-69
2021/12/04 14:41:06;;;;;;;1.50;1.40;;;10.00;99.90;;;;;;5056136;28;20583;-69
2021/12/04 14:43:37;;;;;;;1.80;1.60;;;10.00;99.90;;;;;;5056288;28;20179;-69
2021/12/04 14:46:07;;;;;;;1.52;1.42;;;9.90;99.90;;;;;;5055870;28;20207;-68
2021/12/04 14:48:37;;;;;;;1.30;1.20;;;9.90;99.90;;;;;;5056028;28;20226;-69
2021/12/04 14:51:09;;;;;;;1.58;1.23;;;9.80;99.90;;;;;;5055705;28;20254;-69
2021/12/04 14:53:38;;;;;;;2.65;1.40;;;9.80;99.90;;;;;;5055909;28;20577;-69
2021/12/04 14:56:08;;;;;;;1.60;1.50;;;9.80;99.90;;;;;;5055712;28;20207;-69
2021/12/04 14:58:35;;;;;;;1.45;1.30;;;9.80;99.90;;;;;;5055853;28;20207;-69
2021/12/04 15:01:06;;;;;;;1.55;1.45;;;9.80;99.90;;;;;;5055919;28;20223;-69
2021/12/04 15:03:36;;;;;;;1.33;1.30;;;9.80;99.90;;;;;;5055606;28;20238;-69
2021/12/04 15:06:06;;;;;;;1.15;1.15;;;9.80;99.90;;;;;;5055563;28;20294;-69
2021/12/04 15:08:35;;;;;;;1.55;1.45;;;9.80;99.90;;;;;;5055475;28;20584;-69
2021/12/04 15:11:07;;;;;;;1.70;1.45;;;9.70;99.90;;;;;;5055457;28;20223;-69
2021/12/04 15:13:36;;;;;;;1.65;1.48;;;9.70;99.90;;;;;;5055599;28;20194;-69
2021/12/04 15:16:08;;;;;;;1.33;1.20;;;9.70;99.90;;;;;;5055366;28;20238;-69
2021/12/04 15:18:39;;;;;;;2.55;1.50;;;9.70;99.90;;;;;;5055534;28;20230;-69
2021/12/04 15:21:10;;;;;;;1.35;1.15;;;9.70;99.90;;;;;;5055283;28;20297;-69
2021/12/04 15:23:39;;;;;;;1.38;1.30;;;9.60;99.90;;;;;;5055168;28;20634;-69
2021/12/04 15:26:13;;;;;;;1.45;1.35;;;9.60;99.90;;;;;;5054964;28;20261;-69